Time;durP1;ratioP1;P1;durP2;ratioP2;P2;SDS_P1;SDS_P2;PMS_P1;PMS_P2;Temp;Humidity;BMP_temperature;BMP_pressure;BME280_temperature;BME280_humidity;BME280_pressure;Samples;Min_cycle;Max_cycle;Signal;HPM_P1;HPM_P2
2021/03/22 00:01:31;;;;;;;11.23;3.45;;;;;;;;;;5053929;28;20206;-59
2021/03/22 00:03:59;;;;;;;15.80;3.72;;;;;;;;;;5054026;28;20226;-60
2021/03/22 00:06:25;;;;;;;15.98;4.15;;;;;;;;;;5053373;28;20229;-60
2021/03/22 00:08:54;;;;;;;15.07;3.20;;;;;;;;;;5053664;28;20248;-59
2021/03/22 00:11:21;;;;;;;11.35;3.00;;;;;;;;;;5053775;28;20210;-59
2021/03/22 00:13:48;;;;;;;19.15;4.13;;;;;;;;;;5053592;28;20218;-59
2021/03/22 00:16:14;;;;;;;18.48;4.10;;;;;;;;;;5053574;28;20202;-59
2021/03/22 00:18:41;;;;;;;14.10;3.72;;;;;;;;;;5053761;28;20194;-59
2021/03/22 00:21:10;;;;;;;16.92;3.90;;;;;;;;;;5053570;28;20205;-59
2021/03/22 00:23:37;;;;;;;14.85;4.55;;;;;;;;;;5055728;28;20230;-59
2021/03/22 00:26:05;;;;;;;13.50;3.65;;;;;;;;;;5057705;28;20228;-59
2021/03/22 00:28:38;;;;;;;13.50;3.60;;;;;;;;;;5057343;28;20219;-60
2021/03/22 00:31:05;;;;;;;14.98;4.05;;;;;;;;;;5058140;28;20547;-59
2021/03/22 00:33:32;;;;;;;17.17;4.20;;;;;;;;;;5057539;28;20211;-59
2021/03/22 00:35:58;;;;;;;21.25;4.20;;;;;;;;;;5058625;28;20214;-59
2021/03/22 00:38:26;;;;;;;17.08;4.50;;;;;;;;;;5065024;28;20258;-59
2021/03/22 00:40:55;;;;;;;15.98;4.47;;;;;;;;;;5057225;28;20202;-59
2021/03/22 00:43:22;;;;;;;13.18;3.53;;;;;;;;;;5057067;28;20202;-59
2021/03/22 00:45:48;;;;;;;10.70;2.78;;;;;;;;;;5057386;28;20202;-59
2021/03/22 00:48:15;;;;;;;16.95;4.47;;;;;;;;;;5057159;28;20225;-60
2021/03/22 00:50:43;;;;;;;17.23;3.33;;;;;;;;;;5057533;28;20207;-59
2021/03/22 00:53:11;;;;;;;19.75;4.35;;;;;;;;;;5056987;28;20213;-59
2021/03/22 00:55:38;;;;;;;11.13;3.78;;;;;;;;;;5057172;28;20227;-59
2021/03/22 00:58:05;;;;;;;12.77;3.80;;;;;;;;;;5056894;28;20205;-59
2021/03/22 01:00:34;;;;;;;19.08;3.75;;;;;;;;;;5056700;28;20676;-60
2021/03/22 01:03:01;;;;;;;12.23;3.90;;;;;;;;;;5056731;28;20667;-59
2021/03/22 01:05:28;;;;;;;13.95;3.50;;;;;;;;;;5057533;28;20222;-59
2021/03/22 01:07:55;;;;;;;18.92;4.25;;;;;;;;;;5057030;28;20221;-59
2021/03/22 01:10:24;;;;;;;17.35;4.22;;;;;;;;;;5056351;28;20572;-59
2021/03/22 01:12:52;;;;;;;15.07;3.55;;;;;;;;;;5060141;28;20198;-58
2021/03/22 01:15:19;;;;;;;18.48;4.03;;;;;;;;;;5064701;28;20767;-59
2021/03/22 01:17:46;;;;;;;13.23;3.33;;;;;;;;;;5065526;28;20205;-59
2021/03/22 01:20:14;;;;;;;18.20;4.32;;;;;;;;;;5065050;28;20207;-59
2021/03/22 01:22:41;;;;;;;13.52;3.15;;;;;;;;;;5064518;28;20205;-60
2021/03/22 01:25:09;;;;;;;17.70;4.15;;;;;;;;;;5064217;28;20226;-59
2021/03/22 01:27:36;;;;;;;18.70;4.10;;;;;;;;;;5067909;28;20650;-59
2021/03/22 01:30:07;;;;;;;10.30;3.50;;;;;;;;;;5059308;28;20235;-59
2021/03/22 01:32:34;;;;;;;15.32;3.90;;;;;;;;;;5058879;28;20187;-58
2021/03/22 01:35:00;;;;;;;14.82;3.83;;;;;;;;;;5056516;28;20225;-58
2021/03/22 01:37:27;;;;;;;11.88;4.80;;;;;;;;;;5057350;28;20217;-58
2021/03/22 01:39:54;;;;;;;16.70;3.97;;;;;;;;;;5057745;28;20203;-59
2021/03/22 01:42:25;;;;;;;17.02;4.60;;;;;;;;;;5057521;28;20204;-58
2021/03/22 01:44:55;;;;;;;13.73;3.60;;;;;;;;;;5057740;28;20732;-58
2021/03/22 01:47:24;;;;;;;20.40;4.75;;;;;;;;;;5058283;28;20186;-60
2021/03/22 01:49:53;;;;;;;13.57;3.85;;;;;;;;;;5060080;28;20217;-59
2021/03/22 01:52:21;;;;;;;19.45;4.47;;;;;;;;;;5057630;28;20297;-59
2021/03/22 01:54:47;;;;;;;12.07;3.42;;;;;;;;;;5064047;28;20217;-59
2021/03/22 01:57:28;;;;;;;24.52;4.78;;;;;;;;;;5072289;28;20206;-60
2021/03/22 01:59:57;;;;;;;12.30;3.92;;;;;;;;;;5066326;28;20280;-60
2021/03/22 02:02:24;;;;;;;20.02;4.15;;;;;;;;;;5058326;28;20202;-60
2021/03/22 02:04:51;;;;;;;11.95;3.15;;;;;;;;;;5056949;28;20635;-60
2021/03/22 02:07:18;;;;;;;10.23;3.42;;;;;;;;;;5056869;28;20217;-59
2021/03/22 02:09:45;;;;;;;12.60;3.58;;;;;;;;;;5062154;28;20218;-59
2021/03/22 02:12:17;;;;;;;14.95;3.30;;;;;;;;;;5059102;28;20207;-60
2021/03/22 02:14:44;;;;;;;17.92;4.32;;;;;;;;;;5057966;28;20222;-59
2021/03/22 02:17:15;;;;;;;16.55;3.55;;;;;;;;;;5058330;28;20205;-60
2021/03/22 02:19:55;;;;;;;16.42;3.85;;;;;;;;;;5056923;28;20236;-59
2021/03/22 02:22:39;;;;;;;15.57;3.20;;;;;;;;;;5060288;28;20199;-59
2021/03/22 02:25:19;;;;;;;12.40;3.20;;;;;;;;;;5057340;28;20222;-59
2021/03/22 02:28:11;;;;;;;16.60;4.03;;;;;;;;;;5056065;28;20639;-59
2021/03/22 02:31:03;;;;;;;8.20;3.30;;;;;;;;;;5055739;28;20694;-60
2021/03/22 02:33:53;;;;;;;9.95;4.20;;;;;;;;;;5055204;28;20251;-59
2021/03/22 02:36:22;;;;;;;17.92;4.70;;;;;;;;;;5055464;28;20248;-60
2021/03/22 02:38:51;;;;;;;13.15;2.90;;;;;;;;;;5055648;28;20199;-60
2021/03/22 02:41:21;;;;;;;15.32;4.40;;;;;;;;;;5055625;28;20258;-59
2021/03/22 02:44:00;;;;;;;16.17;3.72;;;;;;;;;;5055097;28;20226;-60
2021/03/22 02:46:27;;;;;;;14.18;2.75;;;;;;;;;;5053996;28;20184;-60
2021/03/22 02:48:54;;;;;;;13.70;4.18;;;;;;;;;;5055009;28;20218;-59
2021/03/22 02:51:25;;;;;;;19.67;5.03;;;;;;;;;;5054912;28;20207;-59
2021/03/22 02:53:55;;;;;;;25.65;4.22;;;;;;;;;;5054842;28;20231;-59
2021/03/22 02:56:38;;;;;;;15.40;3.97;;;;;;;;;;5054917;28;20606;-59
2021/03/22 02:59:06;;;;;;;15.07;3.70;;;;;;;;;;5054835;28;20193;-59
2021/03/22 03:01:35;;;;;;;10.88;3.25;;;;;;;;;;5054763;28;20202;-59
2021/03/22 03:04:02;;;;;;;17.15;3.40;;;;;;;;;;5054312;28;20713;-59
2021/03/22 03:06:46;;;;;;;14.63;3.95;;;;;;;;;;5054302;28;20218;-58
2021/03/22 03:09:12;;;;;;;12.57;3.38;;;;;;;;;;5055086;28;20232;-59
2021/03/22 03:11:39;;;;;;;14.57;3.45;;;;;;;;;;5060882;28;20206;-58
2021/03/22 03:14:06;;;;;;;22.25;3.58;;;;;;;;;;5058743;28;20224;-59
2021/03/22 03:16:33;;;;;;;11.27;3.30;;;;;;;;;;5054207;28;20213;-59
2021/03/22 03:19:00;;;;;;;14.82;3.17;;;;;;;;;;5054137;28;20666;-58
2021/03/22 03:21:27;;;;;;;20.02;4.05;;;;;;;;;;5054480;28;20203;-59
2021/03/22 03:23:55;;;;;;;15.07;5.72;;;;;;;;;;5060970;28;20231;-60
2021/03/22 03:26:22;;;;;;;19.10;4.15;;;;;;;;;;5053923;28;20205;-59
2021/03/22 03:28:48;;;;;;;14.63;2.95;;;;;;;;;;5053865;28;20228;-59
2021/03/22 03:31:15;;;;;;;17.17;3.63;;;;;;;;;;5054407;28;20572;-59
2021/03/22 03:33:42;;;;;;;19.02;3.85;;;;;;;;;;5054195;28;20212;-59
2021/03/22 03:36:09;;;;;;;17.60;3.72;;;;;;;;;;5054060;28;20205;-58
2021/03/22 03:38:36;;;;;;;14.80;4.47;;;;;;;;;;5054107;28;20210;-59
2021/03/22 03:41:04;;;;;;;19.25;3.80;;;;;;;;;;5054001;28;20206;-59
2021/03/22 03:43:30;;;;;;;14.27;3.17;;;;;;;;;;5053960;28;20199;-60
2021/03/22 03:45:57;;;;;;;19.75;4.88;;;;;;;;;;5054172;28;20198;-59
2021/03/22 03:48:25;;;;;;;14.10;3.60;;;;;;;;;;5053805;28;20220;-59
2021/03/22 03:50:52;;;;;;;17.38;4.43;;;;;;;;;;5053756;28;20206;-60
2021/03/22 03:53:19;;;;;;;12.45;3.35;;;;;;;;;;5053769;28;20209;-59
2021/03/22 03:55:46;;;;;;;10.18;4.15;;;;;;;;;;5053468;28;20228;-59
2021/03/22 03:58:13;;;;;;;12.82;3.80;;;;;;;;;;5053527;28;20206;-59
2021/03/22 04:00:42;;;;;;;25.25;4.65;;;;;;;;;;5053501;28;20670;-58
2021/03/22 04:03:19;;;;;;;15.18;3.67;;;;;;;;;;5053405;28;20238;-59
2021/03/22 04:07:53;;;;;;;17.00;3.78;;;;;;;;;;5132828;27;20859;-58
2021/03/22 04:10:20;;;;;;;21.55;4.63;;;;;;;;;;5132068;27;20211;-58
2021/03/22 04:12:46;;;;;;;14.05;4.00;;;;;;;;;;5131936;27;20206;-58
2021/03/22 04:15:15;;;;;;;15.77;4.07;;;;;;;;;;5131817;27;20314;-59
2021/03/22 04:17:42;;;;;;;14.55;4.00;;;;;;;;;;5132354;27;20234;-60
2021/03/22 04:20:10;;;;;;;17.48;4.13;;;;;;;;;;5131864;27;20232;-60
2021/03/22 04:22:37;;;;;;;18.75;4.70;;;;;;;;;;5132006;27;20200;-58
2021/03/22 04:25:05;;;;;;;10.05;3.92;;;;;;;;;;5131634;27;20603;-57
2021/03/22 04:27:32;;;;;;;16.17;4.15;;;;;;;;;;5131802;27;20270;-59
2021/03/22 04:29:58;;;;;;;15.52;4.93;;;;;;;;;;5131717;27;20197;-58
2021/03/22 04:32:25;;;;;;;10.77;3.22;;;;;;;;;;5131793;27;20213;-59
2021/03/22 04:34:52;;;;;;;14.52;3.90;;;;;;;;;;5131381;27;20220;-59
2021/03/22 04:37:19;;;;;;;14.15;3.80;;;;;;;;;;5131522;27;20202;-59
2021/03/22 04:39:45;;;;;;;13.55;3.83;;;;;;;;;;5131400;27;20221;-59
2021/03/22 04:42:13;;;;;;;15.43;3.63;;;;;;;;;;5132204;27;20200;-60
2021/03/22 04:44:40;;;;;;;22.85;4.30;;;;;;;;;;5131336;27;20728;-58
2021/03/22 04:47:07;;;;;;;12.20;3.35;;;;;;;;;;5131611;27;20235;-58
2021/03/22 04:49:34;;;;;;;13.55;3.80;;;;;;;;;;5131256;27;20203;-59
2021/03/22 04:52:00;;;;;;;19.35;4.22;;;;;;;;;;5132146;27;20194;-60
2021/03/22 04:54:27;;;;;;;10.70;3.15;;;;;;;;;;5132189;27;20281;-59
2021/03/22 04:56:54;;;;;;;16.40;4.45;;;;;;;;;;5132367;27;20197;-59
2021/03/22 04:59:21;;;;;;;19.38;3.85;;;;;;;;;;5132766;27;20199;-59
2021/03/22 05:01:48;;;;;;;20.73;4.38;;;;;;;;;;5131898;27;20197;-58
2021/03/22 05:04:15;;;;;;;11.50;4.10;;;;;;;;;;5131657;27;20224;-58
2021/03/22 05:06:42;;;;;;;13.65;3.95;;;;;;;;;;5137319;27;20229;-59
2021/03/22 05:09:08;;;;;;;13.50;4.05;;;;;;;;;;5139655;27;20576;-59
2021/03/22 05:11:35;;;;;;;11.70;4.28;;;;;;;;;;5140473;27;20227;-60
2021/03/22 05:14:02;;;;;;;12.10;3.90;;;;;;;;;;5144037;27;20220;-58
2021/03/22 05:16:30;;;;;;;13.30;3.80;;;;;;;;;;5141746;27;20227;-58
2021/03/22 05:18:57;;;;;;;10.30;3.00;;;;;;;;;;5122231;27;20202;-59
2021/03/22 05:21:23;;;;;;;13.32;3.65;;;;;;;;;;5119902;28;20249;-58
2021/03/22 05:23:50;;;;;;;11.38;3.85;;;;;;;;;;5122047;28;20222;-59
2021/03/22 05:26:17;;;;;;;11.57;2.72;;;;;;;;;;5120828;28;20217;-59
2021/03/22 05:28:44;;;;;;;9.50;3.08;;;;;;;;;;5120047;28;20659;-57
2021/03/22 05:31:11;;;;;;;14.45;3.45;;;;;;;;;;5117060;28;20204;-58
2021/03/22 05:33:39;;;;;;;11.13;3.47;;;;;;;;;;5116718;28;20203;-58
2021/03/22 05:36:06;;;;;;;8.20;3.30;;;;;;;;;;5117090;28;20202;-59
2021/03/22 05:38:33;;;;;;;15.02;3.42;;;;;;;;;;5117022;28;20208;-59
2021/03/22 05:41:01;;;;;;;20.08;3.58;;;;;;;;;;5116475;28;20198;-59
2021/03/22 05:43:46;;;;;;;14.90;4.05;;;;;;;;;;5116930;28;20198;-60
2021/03/22 05:46:16;;;;;;;8.85;3.60;;;;;;;;;;5108921;28;20585;-59
2021/03/22 05:48:57;;;;;;;18.17;4.53;;;;;;;;;;5124954;28;20205;-57
2021/03/22 05:51:35;;;;;;;11.00;4.63;;;;;;;;;;5116927;28;20185;-59
2021/03/22 05:54:06;;;;;;;12.98;3.58;;;;;;;;;;5116801;28;20245;-58
2021/03/22 05:56:36;;;;;;;10.57;3.40;;;;;;;;;;5116868;28;20181;-60
2021/03/22 05:59:17;;;;;;;14.80;3.70;;;;;;;;;;5117045;28;20201;-58
2021/03/22 06:01:45;;;;;;;11.38;3.90;;;;;;;;;;5119018;28;20189;-60
2021/03/22 06:04:25;;;;;;;14.05;3.90;;;;;;;;;;5116301;28;20222;-58
2021/03/22 06:06:52;;;;;;;12.93;3.38;;;;;;;;;;5115989;28;20594;-58
2021/03/22 06:09:23;;;;;;;11.85;3.55;;;;;;;;;;5116443;28;20204;-59
2021/03/22 06:11:54;;;;;;;10.75;3.75;;;;;;;;;;5116896;27;20652;-59
2021/03/22 06:14:24;;;;;;;12.90;3.95;;;;;;;;;;5121039;28;20234;-59
2021/03/22 06:16:54;;;;;;;11.82;4.07;;;;;;;;;;5116632;28;20300;-59
2021/03/22 06:19:20;;;;;;;11.77;3.35;;;;;;;;;;5116668;28;20203;-59
2021/03/22 06:21:49;;;;;;;13.75;4.32;;;;;;;;;;5116642;28;20196;-59
2021/03/22 06:24:16;;;;;;;12.52;4.03;;;;;;;;;;5115658;28;20230;-59
2021/03/22 06:26:45;;;;;;;16.20;4.85;;;;;;;;;;5116006;28;20215;-58
2021/03/22 06:29:18;;;;;;;15.93;4.47;;;;;;;;;;5115244;28;20287;-59
2021/03/22 06:31:45;;;;;;;12.32;3.97;;;;;;;;;;5115559;28;20203;-59
2021/03/22 06:34:14;;;;;;;12.32;3.75;;;;;;;;;;5115861;28;20249;-60
2021/03/22 06:36:41;;;;;;;18.02;4.78;;;;;;;;;;5117136;28;20199;-59
2021/03/22 06:39:10;;;;;;;14.07;4.05;;;;;;;;;;5117931;28;20223;-58
2021/03/22 06:41:39;;;;;;;10.80;4.25;;;;;;;;;;5116981;28;20693;-59
2021/03/22 06:44:07;;;;;;;10.23;3.55;;;;;;;;;;5117860;28;20586;-59
2021/03/22 06:46:34;;;;;;;14.20;3.40;;;;;;;;;;5116983;28;20238;-60
2021/03/22 06:49:02;;;;;;;17.90;4.53;;;;;;;;;;5115732;28;20545;-59
2021/03/22 06:51:28;;;;;;;14.13;4.50;;;;;;;;;;5116104;28;20578;-59
2021/03/22 06:53:58;;;;;;;12.20;4.00;;;;;;;;;;5115485;28;20366;-59
2021/03/22 06:56:27;;;;;;;12.57;4.47;;;;;;;;;;5117334;28;20199;-59
2021/03/22 06:59:09;;;;;;;11.55;4.53;;;;;;;;;;5116707;28;20570;-58
2021/03/22 07:01:36;;;;;;;8.05;3.80;;;;;;;;;;5116595;28;20191;-60
2021/03/22 07:04:16;;;;;;;12.18;4.28;;;;;;;;;;5116459;28;20226;-59
2021/03/22 07:06:43;;;;;;;11.32;4.13;;;;;;;;;;5115433;28;20253;-59
2021/03/22 07:09:29;;;;;;;18.98;4.72;;;;;;;;;;5115291;28;20203;-61
2021/03/22 07:11:57;;;;;;;13.23;4.78;;;;;;;;;;5115787;28;20192;-58
2021/03/22 07:14:25;;;;;;;15.95;4.35;;;;;;;;;;5115420;28;20732;-58
2021/03/22 07:17:03;;;;;;;12.77;5.20;;;;;;;;;;5116362;28;20198;-59
2021/03/22 07:19:29;;;;;;;11.48;4.43;;;;;;;;;;5116628;28;20232;-60
2021/03/22 07:21:58;;;;;;;20.83;4.70;;;;;;;;;;5115812;28;20236;-60
2021/03/22 07:24:42;;;;;;;9.50;3.90;;;;;;;;;;5115355;28;20272;-59
2021/03/22 07:27:13;;;;;;;11.70;4.57;;;;;;;;;;5115189;28;20763;-60
2021/03/22 07:29:59;;;;;;;10.68;4.22;;;;;;;;;;5114954;28;20240;-60
2021/03/22 07:32:36;;;;;;;12.68;4.03;;;;;;;;;;5115657;28;20639;-59
2021/03/22 07:35:11;;;;;;;10.25;4.70;;;;;;;;;;5115721;28;20291;-60
2021/03/22 07:37:44;;;;;;;12.52;4.85;;;;;;;;;;5115923;28;20209;-60
2021/03/22 07:40:16;;;;;;;16.05;5.18;;;;;;;;;;5118212;28;20187;-60
2021/03/22 07:43:02;;;;;;;9.45;4.25;;;;;;;;;;5126610;28;20191;-60
2021/03/22 07:45:31;;;;;;;15.98;5.28;;;;;;;;;;5117679;28;20333;-62
2021/03/22 07:48:09;;;;;;;17.10;4.80;;;;;;;;;;5116822;28;20238;-61
2021/03/22 07:50:37;;;;;;;13.52;5.28;;;;;;;;;;5116852;28;20195;-59
2021/03/22 07:53:08;;;;;;;16.70;4.50;;;;;;;;;;5117679;28;20233;-61
2021/03/22 07:55:50;;;;;;;21.02;5.07;;;;;;;;;;5119501;28;20230;-64
2021/03/22 07:58:43;;;;;;;12.63;4.43;;;;;;;;;;5115102;28;20603;-64
2021/03/22 08:01:13;;;;;;;17.10;6.65;;;;;;;;;;5116487;28;20194;-64
2021/03/22 08:03:49;;;;;;;9.52;4.28;;;;;;;;;;5115600;28;20187;-63
2021/03/22 08:06:25;;;;;;;10.40;3.78;;;;;;;;;;5114995;28;20219;-65
2021/03/22 08:08:57;;;;;;;12.35;4.57;;;;;;;;;;5114229;28;20657;-65
2021/03/22 08:11:29;;;;;;;9.23;3.78;;;;;;;;;;5114358;28;20206;-64
2021/03/22 08:14:01;;;;;;;12.63;4.93;;;;;;;;;;5113904;28;20714;-64
2021/03/22 08:16:47;;;;;;;14.88;4.53;;;;;;;;;;5115077;28;20184;-63
2021/03/22 08:19:17;;;;;;;13.65;4.40;;;;;;;;;;5114400;28;20730;-63
2021/03/22 08:21:47;;;;;;;10.73;5.03;;;;;;;;;;5114321;28;20184;-66
2021/03/22 08:24:17;;;;;;;11.90;5.00;;;;;;;;;;5114377;28;20219;-66
2021/03/22 08:26:51;;;;;;;11.85;4.30;;;;;;;;;;5117336;28;20219;-67
2021/03/22 08:29:20;;;;;;;13.93;4.65;;;;;;;;;;5135178;28;20188;-65
2021/03/22 08:31:51;;;;;;;18.35;3.45;;;;;;;;;;5122196;28;20207;-64
2021/03/22 08:34:20;;;;;;;12.23;4.07;;;;;;;;;;5118420;28;20223;-66
2021/03/22 08:36:50;;;;;;;12.85;3.92;;;;;;;;;;5119273;28;20219;-64
2021/03/22 08:39:25;;;;;;;14.65;3.70;;;;;;;;;;5117480;28;20225;-65
2021/03/22 08:41:56;;;;;;;8.15;3.60;;;;;;;;;;5119730;28;20202;-66
2021/03/22 08:44:27;;;;;;;9.80;3.95;;;;;;;;;;5118467;28;20253;-64
2021/03/22 08:46:58;;;;;;;6.28;4.10;;;;;;;;;;5117207;28;20288;-64
2021/03/22 08:49:30;;;;;;;9.70;3.80;;;;;;;;;;5116123;28;20545;-65
2021/03/22 08:51:59;;;;;;;13.65;3.83;;;;;;;;;;5115236;28;20210;-63
2021/03/22 08:54:27;;;;;;;6.90;3.60;;;;;;;;;;5118801;28;20284;-65
2021/03/22 08:57:02;;;;;;;11.30;4.32;;;;;;;;;;5118517;28;20706;-65
2021/03/22 08:59:30;;;;;;;9.95;4.65;;;;;;;;;;5118521;28;20671;-67
2021/03/22 09:02:10;;;;;;;7.22;3.85;;;;;;;;;;5117988;28;20199;-67
2021/03/22 09:04:37;;;;;;;16.60;4.03;;;;;;;;;;5117690;28;20854;-66
2021/03/22 09:07:07;;;;;;;7.95;3.58;;;;;;;;;;5124648;28;20227;-65
2021/03/22 09:09:36;;;;;;;9.18;3.70;;;;;;;;;;5118686;28;20199;-65
2021/03/22 09:12:09;;;;;;;11.93;4.30;;;;;;;;;;5120415;28;20200;-64
2021/03/22 09:14:47;;;;;;;6.85;3.92;;;;;;;;;;5120725;28;20224;-66
2021/03/22 09:17:25;;;;;;;11.48;3.40;;;;;;;;;;5117535;28;20221;-63
2021/03/22 09:20:10;;;;;;;8.40;3.88;;;;;;;;;;5118165;28;20195;-62
2021/03/22 09:22:48;;;;;;;13.93;3.75;;;;;;;;;;5118221;28;20568;-63
2021/03/22 09:25:30;;;;;;;7.28;4.25;;;;;;;;;;5118465;28;20224;-65
2021/03/22 09:28:11;;;;;;;11.35;3.50;;;;;;;;;;5117804;28;20215;-64
2021/03/22 09:30:42;;;;;;;7.70;3.78;;;;;;;;;;5117929;28;20233;-65
2021/03/22 09:33:08;;;;;;;9.02;4.50;;;;;;;;;;5119624;28;20643;-65
2021/03/22 09:35:54;;;;;;;11.35;3.55;;;;;;;;;;5120439;28;20781;-66
2021/03/22 09:38:34;;;;;;;7.38;3.88;;;;;;;;;;5120959;28;20205;-66
2021/03/22 09:41:00;;;;;;;9.55;4.15;;;;;;;;;;5119124;28;20200;-63
2021/03/22 09:43:31;;;;;;;10.07;3.03;;;;;;;;;;5119621;27;20256;-66
2021/03/22 09:46:16;;;;;;;6.50;3.47;;;;;;;;;;5125940;28;20214;-62
2021/03/22 09:48:42;;;;;;;7.40;4.03;;;;;;;;;;5120581;28;20214;-64
2021/03/22 09:51:24;;;;;;;7.82;3.20;;;;;;;;;;5119735;28;20200;-63
2021/03/22 09:53:52;;;;;;;9.75;3.72;;;;;;;;;;5119091;28;20574;-63
2021/03/22 09:56:27;;;;;;;12.32;3.95;;;;;;;;;;5119727;28;20196;-63
2021/03/22 09:58:53;;;;;;;8.25;4.22;;;;;;;;;;5118020;28;20207;-63
2021/03/22 10:01:40;;;;;;;11.93;3.65;;;;;;;;;;5116933;28;20204;-64
2021/03/22 10:04:20;;;;;;;8.13;3.80;;;;;;;;;;5116889;28;20215;-62
2021/03/22 10:06:56;;;;;;;8.60;2.90;;;;;;;;;;5116747;28;20221;-64
2021/03/22 10:09:25;;;;;;;9.25;3.20;;;;;;;;;;5117271;28;20187;-65
2021/03/22 10:11:53;;;;;;;8.15;3.40;;;;;;;;;;5118013;28;20202;-63
2021/03/22 10:14:22;;;;;;;6.25;2.90;;;;;;;;;;5119111;28;20220;-65
2021/03/22 10:16:51;;;;;;;6.53;2.92;;;;;;;;;;5118100;28;20198;-64
2021/03/22 10:19:19;;;;;;;9.20;3.58;;;;;;;;;;5116862;28;20199;-65
2021/03/22 10:21:48;;;;;;;5.22;3.25;;;;;;;;;;5117018;28;20206;-64
2021/03/22 10:24:20;;;;;;;4.45;2.80;;;;;;;;;;5117123;28;20275;-66
2021/03/22 10:26:47;;;;;;;9.60;3.10;;;;;;;;;;5117132;28;20206;-65
2021/03/22 10:29:15;;;;;;;8.80;2.78;;;;;;;;;;5117263;28;20277;-64
2021/03/22 10:31:42;;;;;;;7.88;3.15;;;;;;;;;;5117409;28;20579;-63
2021/03/22 10:34:19;;;;;;;6.65;2.45;;;;;;;;;;5116700;28;20275;-62
2021/03/22 10:36:46;;;;;;;5.47;2.80;;;;;;;;;;5117488;27;20185;-64
2021/03/22 10:39:19;;;;;;;9.30;2.70;;;;;;;;;;5123217;28;20206;-62
2021/03/22 10:41:46;;;;;;;5.32;3.00;;;;;;;;;;5125716;28;20196;-64
2021/03/22 10:44:18;;;;;;;8.68;3.67;;;;;;;;;;5125135;28;20312;-64
2021/03/22 10:46:45;;;;;;;7.00;3.40;;;;;;;;;;5118594;28;20599;-63
2021/03/22 10:49:16;;;;;;;4.60;2.97;;;;;;;;;;5117080;28;20448;-62
2021/03/22 10:51:43;;;;;;;7.27;3.17;;;;;;;;;;5119542;28;20941;-64
2021/03/22 10:54:12;;;;;;;5.47;2.90;;;;;;;;;;5124536;28;20465;-63
2021/03/22 10:56:41;;;;;;;6.50;3.07;;;;;;;;;;5129105;28;20441;-66
2021/03/22 10:59:11;;;;;;;7.60;3.63;;;;;;;;;;5127742;28;20501;-66
2021/03/22 11:01:39;;;;;;;7.05;2.83;;;;;;;;;;5127879;28;20186;-67
2021/03/22 11:04:12;;;;;;;5.25;2.80;;;;;;;;;;5117582;28;20221;-64
2021/03/22 11:06:40;;;;;;;10.32;2.60;;;;;;;;;;5115412;28;20227;-63
2021/03/22 11:09:08;;;;;;;3.13;2.13;;;;;;;;;;5115590;28;20213;-64
2021/03/22 11:11:36;;;;;;;5.70;2.78;;;;;;;;;;5116208;28;20208;-63
2021/03/22 11:14:05;;;;;;;5.15;3.28;;;;;;;;;;5114965;28;20224;-65
2021/03/22 11:16:32;;;;;;;7.80;2.90;;;;;;;;;;5114970;28;20254;-65
2021/03/22 11:19:00;;;;;;;4.40;2.88;;;;;;;;;;5115582;28;20268;-63
2021/03/22 11:21:28;;;;;;;11.65;3.10;;;;;;;;;;5115117;28;20200;-66
2021/03/22 11:23:57;;;;;;;4.80;3.00;;;;;;;;;;5116025;28;20226;-66
2021/03/22 11:26:25;;;;;;;5.57;2.57;;;;;;;;;;5115298;28;20444;-67
2021/03/22 11:28:52;;;;;;;5.93;2.95;;;;;;;;;;5114939;28;20478;-66
2021/03/22 11:31:25;;;;;;;7.68;2.85;;;;;;;;;;5115765;28;20200;-65
2021/03/22 11:33:59;;;;;;;5.68;2.72;;;;;;;;;;5118478;28;20219;-66
2021/03/22 11:36:34;;;;;;;4.72;2.70;;;;;;;;;;5131172;28;20208;-66
2021/03/22 11:39:11;;;;;;;5.90;3.40;;;;;;;;;;5120680;28;20204;-63
2021/03/22 11:41:38;;;;;;;5.03;2.90;;;;;;;;;;5118470;28;20192;-62
2021/03/22 11:44:07;;;;;;;3.40;2.40;;;;;;;;;;5117053;28;20223;-64
2021/03/22 11:46:35;;;;;;;5.10;1.95;;;;;;;;;;5118728;28;20555;-64
2021/03/22 11:49:02;;;;;;;5.13;2.30;;;;;;;;;;5118409;28;20210;-64
2021/03/22 11:51:28;;;;;;;4.00;2.20;;;;;;;;;;5122500;28;20203;-65
2021/03/22 11:54:03;;;;;;;7.97;2.80;;;;;;;;;;5121791;28;20472;-64
2021/03/22 11:56:32;;;;;;;4.63;2.60;;;;;;;;;;5116749;28;20523;-65
2021/03/22 11:59:09;;;;;;;3.90;2.70;;;;;;;;;;5116833;28;20493;-64
2021/03/22 12:01:36;;;;;;;6.75;2.65;;;;;;;;;;5117036;28;20450;-64
2021/03/22 12:04:16;;;;;;;6.05;2.38;;;;;;;;;;5116491;28;20223;-64
2021/03/22 12:06:57;;;;;;;7.53;2.65;;;;;;;;;;5115431;28;20250;-65
2021/03/22 12:09:26;;;;;;;5.13;2.50;;;;;;;;;;5118942;28;20206;-64
2021/03/22 12:11:54;;;;;;;5.43;2.70;;;;;;;;;;5120748;28;20456;-64
2021/03/22 12:14:20;;;;;;;4.30;2.70;;;;;;;;;;5121958;28;20461;-63
2021/03/22 12:16:48;;;;;;;5.10;2.40;;;;;;;;;;5119300;28;20447;-64
2021/03/22 12:19:17;;;;;;;9.07;2.67;;;;;;;;;;5116029;28;20448;-64
2021/03/22 12:21:44;;;;;;;6.97;3.55;;;;;;;;;;5114732;28;20448;-64
2021/03/22 12:24:13;;;;;;;6.28;2.85;;;;;;;;;;5114958;28;20637;-65
2021/03/22 12:26:40;;;;;;;5.32;2.42;;;;;;;;;;5114830;28;20249;-65
2021/03/22 12:29:07;;;;;;;4.03;3.28;;;;;;;;;;5117743;28;20274;-63
2021/03/22 12:31:35;;;;;;;3.30;2.67;;;;;;;;;;5119668;28;20209;-63
2021/03/22 12:34:04;;;;;;;3.87;2.20;;;;;;;;;;5118433;28;20233;-63
2021/03/22 12:36:32;;;;;;;6.13;2.60;;;;;;;;;;5117922;28;20444;-65
2021/03/22 12:38:58;;;;;;;6.75;3.10;;;;;;;;;;5118554;28;20448;-64
2021/03/22 12:41:28;;;;;;;3.80;2.37;;;;;;;;;;5118600;28;20207;-63
2021/03/22 12:43:57;;;;;;;3.90;2.33;;;;;;;;;;5118724;27;20470;-65
2021/03/22 12:46:23;;;;;;;4.70;2.60;;;;;;;;;;5118796;28;20203;-63
2021/03/22 12:48:50;;;;;;;3.55;2.20;;;;;;;;;;5121681;28;20443;-65
2021/03/22 12:51:17;;;;;;;4.63;2.60;;;;;;;;;;5118766;28;20205;-65
2021/03/22 12:53:44;;;;;;;5.85;2.53;;;;;;;;;;5122599;28;20472;-66
2021/03/22 12:56:11;;;;;;;7.20;2.87;;;;;;;;;;5121741;27;20203;-65
2021/03/22 12:58:38;;;;;;;5.03;2.50;;;;;;;;;;5119904;28;20443;-65
2021/03/22 13:01:06;;;;;;;7.10;2.90;;;;;;;;;;5118391;28;20907;-63
2021/03/22 13:03:33;;;;;;;11.00;3.07;;;;;;;;;;5117855;28;20202;-65
2021/03/22 13:06:00;;;;;;;3.63;2.27;;;;;;;;;;5117920;28;20460;-64
2021/03/22 13:08:28;;;;;;;5.88;2.30;;;;;;;;;;5118014;28;20974;-66
2021/03/22 13:10:55;;;;;;;3.80;2.63;;;;;;;;;;5118210;28;20203;-67
2021/03/22 13:13:22;;;;;;;3.33;2.27;;;;;;;;;;5118177;28;20494;-64
2021/03/22 13:15:50;;;;;;;3.63;2.60;;;;;;;;;;5117091;28;20487;-63
2021/03/22 13:18:19;;;;;;;2.90;2.10;;;;;;;;;;5119040;28;20282;-59
2021/03/22 13:20:46;;;;;;;8.20;2.80;;;;;;;;;;5119467;28;20449;-62
2021/03/22 13:23:14;;;;;;;7.30;2.90;;;;;;;;;;5119360;28;20792;-63
2021/03/22 13:25:41;;;;;;;4.03;2.63;;;;;;;;;;5122248;28;20555;-65
2021/03/22 13:28:12;;;;;;;2.83;2.25;;;;;;;;;;5119073;28;20564;-62
2021/03/22 13:30:39;;;;;;;3.55;2.35;;;;;;;;;;5118472;28;20186;-62
2021/03/22 13:33:06;;;;;;;2.73;2.53;;;;;;;;;;5118426;28;20203;-62
2021/03/22 13:35:34;;;;;;;6.23;2.73;;;;;;;;;;5118709;28;20477;-63
2021/03/22 13:38:02;;;;;;;4.30;2.63;;;;;;;;;;5118275;28;20445;-63
2021/03/22 13:40:29;;;;;;;3.50;2.72;;;;;;;;;;5117466;28;20684;-61
2021/03/22 13:42:55;;;;;;;4.80;2.10;;;;;;;;;;5117242;28;20668;-62
2021/03/22 13:45:24;;;;;;;3.60;2.53;;;;;;;;;;5116999;28;20226;-62
2021/03/22 13:47:50;;;;;;;4.40;2.75;;;;;;;;;;5117064;28;20238;-63
2021/03/22 13:50:18;;;;;;;3.08;1.98;;;;;;;;;;5117126;28;20255;-63
2021/03/22 13:52:45;;;;;;;3.80;2.10;;;;;;;;;;5116930;28;20285;-62
2021/03/22 13:55:13;;;;;;;2.88;2.28;;;;;;;;;;5117465;28;20217;-63
2021/03/22 13:57:40;;;;;;;6.82;2.40;;;;;;;;;;5117997;28;20257;-62
2021/03/22 14:00:09;;;;;;;4.95;1.83;;;;;;;;;;5116919;28;20690;-62
2021/03/22 14:02:36;;;;;;;7.23;1.93;;;;;;;;;;5117427;28;20292;-64
2021/03/22 14:05:02;;;;;;;3.37;2.00;;;;;;;;;;5117931;27;20465;-63
2021/03/22 14:07:29;;;;;;;5.35;1.70;;;;;;;;;;5117822;28;21002;-62
2021/03/22 14:09:57;;;;;;;2.70;1.95;;;;;;;;;;5116840;28;20300;-62
2021/03/22 14:12:24;;;;;;;3.40;1.85;;;;;;;;;;5117607;28;20259;-64
2021/03/22 14:14:51;;;;;;;3.20;2.33;;;;;;;;;;5117721;28;20247;-64
2021/03/22 14:17:18;;;;;;;4.00;2.30;;;;;;;;;;5117238;28;20202;-62
2021/03/22 14:19:45;;;;;;;4.10;2.80;;;;;;;;;;5118443;28;20457;-63
2021/03/22 14:22:12;;;;;;;5.60;3.23;;;;;;;;;;5117551;28;20569;-62
2021/03/22 14:24:39;;;;;;;5.55;3.75;;;;;;;;;;5118559;28;21044;-62
2021/03/22 14:27:07;;;;;;;5.13;3.30;;;;;;;;;;5118088;28;20243;-63
2021/03/22 14:29:33;;;;;;;3.38;2.53;;;;;;;;;;5118011;28;20647;-61
2021/03/22 14:32:00;;;;;;;3.10;2.05;;;;;;;;;;5119207;28;20692;-62
2021/03/22 14:34:27;;;;;;;5.95;3.00;;;;;;;;;;5119029;28;20222;-61
2021/03/22 14:36:54;;;;;;;4.53;3.03;;;;;;;;;;5117102;27;20192;-65
2021/03/22 14:39:22;;;;;;;6.53;3.13;;;;;;;;;;5117299;28;20818;-64
2021/03/22 14:41:49;;;;;;;6.95;3.15;;;;;;;;;;5120429;28;20460;-63
2021/03/22 14:44:17;;;;;;;5.72;4.15;;;;;;;;;;5127098;28;20240;-63
2021/03/22 14:46:43;;;;;;;5.47;3.72;;;;;;;;;;5122977;28;20201;-62
2021/03/22 14:49:10;;;;;;;7.35;5.35;;;;;;;;;;5122092;28;20208;-62
2021/03/22 14:51:37;;;;;;;7.22;5.15;;;;;;;;;;5121447;28;20220;-62
2021/03/22 14:54:03;;;;;;;6.60;5.90;;;;;;;;;;5121586;28;20231;-62